sensor_id;sensor_type;location;lat;lon;timestamp;temperature;humidity
13616;DHT22;6879;51.368;6.782;2024-02-04T00:01:16;10.20;99.90
13616;DHT22;6879;51.368;6.782;2024-02-04T00:03:45;10.20;99.90
13616;DHT22;6879;51.368;6.782;2024-02-04T00:06:17;10.20;99.90
13616;DHT22;6879;51.368;6.782;2024-02-04T00:08:45;10.30;99.90
13616;DHT22;6879;51.368;6.782;2024-02-04T00:11:14;10.30;99.90
13616;DHT22;6879;51.368;6.782;2024-02-04T00:13:44;10.30;99.90
13616;DHT22;6879;51.368;6.782;2024-02-04T00:16:12;10.30;99.90
13616;DHT22;6879;51.368;6.782;2024-02-04T00:18:41;10.30;99.90
13616;DHT22;6879;51.368;6.782;2024-02-04T00:21:10;10.30;99.90
13616;DHT22;6879;51.368;6.782;2024-02-04T00:23:40;10.40;99.90
13616;DHT22;6879;51.368;6.782;2024-02-04T00:26:09;10.30;99.90
13616;DHT22;6879;51.368;6.782;2024-02-04T00:28:38;10.30;99.90
13616;DHT22;6879;51.368;6.782;2024-02-04T00:31:06;10.30;99.90
13616;DHT22;6879;51.368;6.782;2024-02-04T00:33:35;10.30;99.90
13616;DHT22;6879;51.368;6.782;2024-02-04T00:36:05;10.30;99.90
13616;DHT22;6879;51.368;6.782;2024-02-04T00:38:34;10.30;99.90
13616;DHT22;6879;51.368;6.782;2024-02-04T00:41:04;10.30;99.90
13616;DHT22;6879;51.368;6.782;2024-02-04T00:43:33;10.20;99.90
13616;DHT22;6879;51.368;6.782;2024-02-04T00:46:01;10.20;99.90
13616;DHT22;6879;51.368;6.782;2024-02-04T00:48:31;10.20;99.90
13616;DHT22;6879;51.368;6.782;2024-02-04T00:51:00;10.20;99.90
13616;DHT22;6879;51.368;6.782;2024-02-04T00:53:28;10.20;99.90
13616;DHT22;6879;51.368;6.782;2024-02-04T00:56:03;10.20;99.90
13616;DHT22;6879;51.368;6.782;2024-02-04T00:58:36;10.20;99.90
13616;DHT22;6879;51.368;6.782;2024-02-04T01:01:07;10.20;99.90
13616;DHT22;6879;51.368;6.782;2024-02-04T01:03:36;10.20;99.90
13616;DHT22;6879;51.368;6.782;2024-02-04T01:06:05;10.20;99.90
13616;DHT22;6879;51.368;6.782;2024-02-04T01:08:34;10.20;99.90
13616;DHT22;6879;51.368;6.782;2024-02-04T01:11:06;10.20;99.90
13616;DHT22;6879;51.368;6.782;2024-02-04T01:13:35;10.20;99.90
13616;DHT22;6879;51.368;6.782;2024-02-04T01:16:05;10.20;99.90
13616;DHT22;6879;51.368;6.782;2024-02-04T01:18:33;10.30;99.90
13616;DHT22;6879;51.368;6.782;2024-02-04T01:21:02;10.30;99.90
13616;DHT22;6879;51.368;6.782;2024-02-04T01:23:31;10.30;99.90
13616;DHT22;6879;51.368;6.782;2024-02-04T01:26:00;10.30;99.90
13616;DHT22;6879;51.368;6.782;2024-02-04T01:28:31;10.30;99.90
13616;DHT22;6879;51.368;6.782;2024-02-04T01:31:00;10.30;99.90
13616;DHT22;6879;51.368;6.782;2024-02-04T01:33:29;10.30;99.90
13616;DHT22;6879;51.368;6.782;2024-02-04T01:35:58;10.30;99.90
13616;DHT22;6879;51.368;6.782;2024-02-04T01:38:29;10.30;99.90
13616;DHT22;6879;51.368;6.782;2024-02-04T01:40:58;10.30;99.90
13616;DHT22;6879;51.368;6.782;2024-02-04T01:43:26;10.40;99.90
13616;DHT22;6879;51.368;6.782;2024-02-04T01:45:57;10.40;99.90
13616;DHT22;6879;51.368;6.782;2024-02-04T01:48:26;10.40;99.90
13616;DHT22;6879;51.368;6.782;2024-02-04T01:50:58;10.40;99.90
13616;DHT22;6879;51.368;6.782;2024-02-04T01:53:28;10.40;99.90
13616;DHT22;6879;51.368;6.782;2024-02-04T01:55:56;10.40;99.90
13616;DHT22;6879;51.368;6.782;2024-02-04T01:58:28;10.40;99.90
13616;DHT22;6879;51.368;6.782;2024-02-04T02:00:58;10.50;99.90
13616;DHT22;6879;51.368;6.782;2024-02-04T02:03:26;10.50;99.90
13616;DHT22;6879;51.368;6.782;2024-02-04T02:05:57;10.40;99.90
13616;DHT22;6879;51.368;6.782;2024-02-04T02:08:26;10.50;99.90
13616;DHT22;6879;51.368;6.782;2024-02-04T02:11:01;10.50;99.90
13616;DHT22;6879;51.368;6.782;2024-02-04T02:13:32;10.50;99.90
13616;DHT22;6879;51.368;6.782;2024-02-04T02:16:08;10.50;99.90
13616;DHT22;6879;51.368;6.782;2024-02-04T02:18:42;10.50;99.90
13616;DHT22;6879;51.368;6.782;2024-02-04T02:21:26;10.50;99.90
13616;DHT22;6879;51.368;6.782;2024-02-04T02:24:10;10.50;99.90
13616;DHT22;6879;51.368;6.782;2024-02-04T02:26:40;10.50;99.90
13616;DHT22;6879;51.368;6.782;2024-02-04T02:29:10;10.50;99.90
13616;DHT22;6879;51.368;6.782;2024-02-04T02:31:40;10.50;99.90
13616;DHT22;6879;51.368;6.782;2024-02-04T02:34:16;10.50;99.90
13616;DHT22;6879;51.368;6.782;2024-02-04T02:37:12;10.60;99.90
13616;DHT22;6879;51.368;6.782;2024-02-04T02:39:48;10.60;99.90
13616;DHT22;6879;51.368;6.782;2024-02-04T02:42:19;10.60;99.90
13616;DHT22;6879;51.368;6.782;2024-02-04T02:44:50;10.60;99.90
13616;DHT22;6879;51.368;6.782;2024-02-04T02:47:19;10.60;99.90
13616;DHT22;6879;51.368;6.782;2024-02-04T02:49:48;10.70;99.90
13616;DHT22;6879;51.368;6.782;2024-02-04T02:52:19;10.60;99.90
13616;DHT22;6879;51.368;6.782;2024-02-04T02:54:47;10.70;99.90
13616;DHT22;6879;51.368;6.782;2024-02-04T02:57:16;10.70;99.90
13616;DHT22;6879;51.368;6.782;2024-02-04T02:59:46;10.70;99.90
13616;DHT22;6879;51.368;6.782;2024-02-04T03:02:15;10.70;99.90
13616;DHT22;6879;51.368;6.782;2024-02-04T03:04:44;10.70;99.90
13616;DHT22;6879;51.368;6.782;2024-02-04T03:07:13;10.70;99.90
13616;DHT22;6879;51.368;6.782;2024-02-04T03:09:44;10.70;99.90
13616;DHT22;6879;51.368;6.782;2024-02-04T03:12:13;10.70;99.90
13616;DHT22;6879;51.368;6.782;2024-02-04T03:14:42;10.70;99.90
13616;DHT22;6879;51.368;6.782;2024-02-04T03:17:12;10.70;99.90
13616;DHT22;6879;51.368;6.782;2024-02-04T03:19:41;10.70;99.90
13616;DHT22;6879;51.368;6.782;2024-02-04T03:22:11;10.70;99.90
13616;DHT22;6879;51.368;6.782;2024-02-04T03:24:40;10.70;99.90
13616;DHT22;6879;51.368;6.782;2024-02-04T03:27:12;10.60;99.90
13616;DHT22;6879;51.368;6.782;2024-02-04T03:29:40;10.70;99.90
13616;DHT22;6879;51.368;6.782;2024-02-04T03:32:12;10.70;99.90
13616;DHT22;6879;51.368;6.782;2024-02-04T03:34:41;10.70;99.90
13616;DHT22;6879;51.368;6.782;2024-02-04T03:37:11;10.60;99.90
13616;DHT22;6879;51.368;6.782;2024-02-04T03:39:40;10.60;99.90
13616;DHT22;6879;51.368;6.782;2024-02-04T03:42:09;10.60;99.90
13616;DHT22;6879;51.368;6.782;2024-02-04T03:44:37;10.70;99.90
13616;DHT22;6879;51.368;6.782;2024-02-04T03:47:06;10.70;99.90
13616;DHT22;6879;51.368;6.782;2024-02-04T03:49:36;10.60;99.90
13616;DHT22;6879;51.368;6.782;2024-02-04T03:52:05;10.70;99.90
13616;DHT22;6879;51.368;6.782;2024-02-04T03:54:34;10.60;99.90
13616;DHT22;6879;51.368;6.782;2024-02-04T03:57:03;10.70;99.90
13616;DHT22;6879;51.368;6.782;2024-02-04T03:59:34;10.60;99.90
13616;DHT22;6879;51.368;6.782;2024-02-04T04:02:03;10.60;99.90
13616;DHT22;6879;51.368;6.782;2024-02-04T04:04:32;10.60;99.90
13616;DHT22;6879;51.368;6.782;2024-02-04T04:07:03;10.70;99.90
13616;DHT22;6879;51.368;6.782;2024-02-04T04:09:32;10.70;99.90
13616;DHT22;6879;51.368;6.782;2024-02-04T04:12:01;10.70;99.90
13616;DHT22;6879;51.368;6.782;2024-02-04T04:14:29;10.70;99.90
13616;DHT22;6879;51.368;6.782;2024-02-04T04:16:58;10.70;99.90
13616;DHT22;6879;51.368;6.782;2024-02-04T04:19:26;10.70;99.90
13616;DHT22;6879;51.368;6.782;2024-02-04T04:21:55;10.70;99.90
13616;DHT22;6879;51.368;6.782;2024-02-04T04:24:28;10.70;99.90
13616;DHT22;6879;51.368;6.782;2024-02-04T04:26:57;10.70;99.90
13616;DHT22;6879;51.368;6.782;2024-02-04T04:29:26;10.70;99.90
13616;DHT22;6879;51.368;6.782;2024-02-04T04:31:54;10.70;99.90
13616;DHT22;6879;51.368;6.782;2024-02-04T04:34:23;10.70;99.90
13616;DHT22;6879;51.368;6.782;2024-02-04T04:36:52;10.70;99.90
13616;DHT22;6879;51.368;6.782;2024-02-04T04:39:20;10.70;99.90
13616;DHT22;6879;51.368;6.782;2024-02-04T04:41:50;10.70;99.90
13616;DHT22;6879;51.368;6.782;2024-02-04T04:44:19;10.70;99.90
13616;DHT22;6879;51.368;6.782;2024-02-04T04:46:48;10.70;99.90
13616;DHT22;6879;51.368;6.782;2024-02-04T04:49:16;10.70;99.90
13616;DHT22;6879;51.368;6.782;2024-02-04T04:51:45;10.60;99.90
13616;DHT22;6879;51.368;6.782;2024-02-04T04:54:14;10.70;99.90
13616;DHT22;6879;51.368;6.782;2024-02-04T04:56:43;10.70;99.90
13616;DHT22;6879;51.368;6.782;2024-02-04T04:59:14;10.70;99.90
13616;DHT22;6879;51.368;6.782;2024-02-04T05:01:46;10.70;99.90
13616;DHT22;6879;51.368;6.782;2024-02-04T05:04:16;10.70;99.90
13616;DHT22;6879;51.368;6.782;2024-02-04T05:06:46;10.70;99.90
13616;DHT22;6879;51.368;6.782;2024-02-04T05:09:15;10.70;99.90
13616;DHT22;6879;51.368;6.782;2024-02-04T05:11:43;10.70;99.90
13616;DHT22;6879;51.368;6.782;2024-02-04T05:14:13;10.70;99.90
13616;DHT22;6879;51.368;6.782;2024-02-04T05:16:42;10.70;99.90
13616;DHT22;6879;51.368;6.782;2024-02-04T05:19:12;10.70;99.90
13616;DHT22;6879;51.368;6.782;2024-02-04T05:21:41;10.70;99.90
13616;DHT22;6879;51.368;6.782;2024-02-04T05:24:10;10.70;99.90
13616;DHT22;6879;51.368;6.782;2024-02-04T05:26:38;10.70;99.90
13616;DHT22;6879;51.368;6.782;2024-02-04T05:29:07;10.70;99.90
13616;DHT22;6879;51.368;6.782;2024-02-04T05:31:41;10.80;99.90
13616;DHT22;6879;51.368;6.782;2024-02-04T05:34:10;10.80;99.90
13616;DHT22;6879;51.368;6.782;2024-02-04T05:36:39;10.80;99.90
13616;DHT22;6879;51.368;6.782;2024-02-04T05:39:11;10.80;99.90
13616;DHT22;6879;51.368;6.782;2024-02-04T05:41:41;10.80;99.90
13616;DHT22;6879;51.368;6.782;2024-02-04T05:44:09;10.80;99.90
13616;DHT22;6879;51.368;6.782;2024-02-04T05:46:39;10.80;99.90
13616;DHT22;6879;51.368;6.782;2024-02-04T05:49:09;10.80;99.90
13616;DHT22;6879;51.368;6.782;2024-02-04T05:51:39;10.80;99.90
13616;DHT22;6879;51.368;6.782;2024-02-04T05:54:08;10.80;99.90
13616;DHT22;6879;51.368;6.782;2024-02-04T05:56:36;10.80;99.90
13616;DHT22;6879;51.368;6.782;2024-02-04T05:59:05;10.80;99.90
13616;DHT22;6879;51.368;6.782;2024-02-04T06:01:34;10.70;99.90
13616;DHT22;6879;51.368;6.782;2024-02-04T06:04:02;10.80;99.90
13616;DHT22;6879;51.368;6.782;2024-02-04T06:06:33;10.70;99.90
13616;DHT22;6879;51.368;6.782;2024-02-04T06:09:01;10.70;99.90
13616;DHT22;6879;51.368;6.782;2024-02-04T06:11:31;10.70;99.90
13616;DHT22;6879;51.368;6.782;2024-02-04T06:13:59;10.70;99.90
13616;DHT22;6879;51.368;6.782;2024-02-04T06:16:28;10.70;99.90
13616;DHT22;6879;51.368;6.782;2024-02-04T06:18:56;10.70;99.90
13616;DHT22;6879;51.368;6.782;2024-02-04T06:21:25;10.80;99.90
13616;DHT22;6879;51.368;6.782;2024-02-04T06:23:55;10.80;99.90
13616;DHT22;6879;51.368;6.782;2024-02-04T06:26:24;10.70;99.90
13616;DHT22;6879;51.368;6.782;2024-02-04T06:28:52;10.70;99.90
13616;DHT22;6879;51.368;6.782;2024-02-04T06:31:21;10.70;99.90
13616;DHT22;6879;51.368;6.782;2024-02-04T06:33:50;10.60;99.90
13616;DHT22;6879;51.368;6.782;2024-02-04T06:36:19;10.60;99.90
13616;DHT22;6879;51.368;6.782;2024-02-04T06:38:48;10.60;99.90
13616;DHT22;6879;51.368;6.782;2024-02-04T06:41:18;10.60;99.90
13616;DHT22;6879;51.368;6.782;2024-02-04T06:43:46;10.60;99.90
13616;DHT22;6879;51.368;6.782;2024-02-04T06:46:24;10.60;99.90
13616;DHT22;6879;51.368;6.782;2024-02-04T06:48:53;10.60;99.90
13616;DHT22;6879;51.368;6.782;2024-02-04T06:51:22;10.60;99.90
13616;DHT22;6879;51.368;6.782;2024-02-04T06:53:51;10.60;99.90
13616;DHT22;6879;51.368;6.782;2024-02-04T06:56:21;10.60;99.90
13616;DHT22;6879;51.368;6.782;2024-02-04T06:58:50;10.60;99.90
13616;DHT22;6879;51.368;6.782;2024-02-04T07:01:18;10.60;99.90
13616;DHT22;6879;51.368;6.782;2024-02-04T07:03:47;10.60;99.90
13616;DHT22;6879;51.368;6.782;2024-02-04T07:06:17;10.60;99.90
13616;DHT22;6879;51.368;6.782;2024-02-04T07:08:46;10.60;99.90
13616;DHT22;6879;51.368;6.782;2024-02-04T07:11:14;10.60;99.90
13616;DHT22;6879;51.368;6.782;2024-02-04T07:13:45;10.60;99.90
13616;DHT22;6879;51.368;6.782;2024-02-04T07:16:13;10.60;99.90
13616;DHT22;6879;51.368;6.782;2024-02-04T07:18:42;10.60;99.90
13616;DHT22;6879;51.368;6.782;2024-02-04T07:21:11;10.60;99.90
13616;DHT22;6879;51.368;6.782;2024-02-04T07:23:39;10.60;99.90
13616;DHT22;6879;51.368;6.782;2024-02-04T07:26:08;10.60;99.90
13616;DHT22;6879;51.368;6.782;2024-02-04T07:28:37;10.60;99.90
13616;DHT22;6879;51.368;6.782;2024-02-04T07:31:07;10.60;99.90
13616;DHT22;6879;51.368;6.782;2024-02-04T07:33:36;10.60;99.90
13616;DHT22;6879;51.368;6.782;2024-02-04T07:36:05;10.60;99.90
13616;DHT22;6879;51.368;6.782;2024-02-04T07:38:35;10.60;99.90
13616;DHT22;6879;51.368;6.782;2024-02-04T07:41:03;10.70;99.90
13616;DHT22;6879;51.368;6.782;2024-02-04T07:43:32;10.60;99.90
13616;DHT22;6879;51.368;6.782;2024-02-04T07:46:03;10.70;99.90
13616;DHT22;6879;51.368;6.782;2024-02-04T07:48:33;10.70;99.90
13616;DHT22;6879;51.368;6.782;2024-02-04T07:51:02;10.70;99.90
13616;DHT22;6879;51.368;6.782;2024-02-04T07:53:31;10.70;99.90
13616;DHT22;6879;51.368;6.782;2024-02-04T07:56:02;10.70;99.90
13616;DHT22;6879;51.368;6.782;2024-02-04T07:58:33;10.70;99.90
13616;DHT22;6879;51.368;6.782;2024-02-04T08:01:02;10.70;99.90
13616;DHT22;6879;51.368;6.782;2024-02-04T08:03:37;10.70;99.90
13616;DHT22;6879;51.368;6.782;2024-02-04T08:06:07;10.70;99.90
13616;DHT22;6879;51.368;6.782;2024-02-04T08:08:39;10.70;99.90
13616;DHT22;6879;51.368;6.782;2024-02-04T08:11:09;10.80;99.90
13616;DHT22;6879;51.368;6.782;2024-02-04T08:13:38;10.70;99.90
13616;DHT22;6879;51.368;6.782;2024-02-04T08:16:07;10.70;99.90
13616;DHT22;6879;51.368;6.782;2024-02-04T08:18:37;10.70;99.90
13616;DHT22;6879;51.368;6.782;2024-02-04T08:21:06;10.70;99.90
13616;DHT22;6879;51.368;6.782;2024-02-04T08:23:34;10.80;99.90
13616;DHT22;6879;51.368;6.782;2024-02-04T08:26:03;10.80;99.90
13616;DHT22;6879;51.368;6.782;2024-02-04T08:28:32;10.80;99.90
13616;DHT22;6879;51.368;6.782;2024-02-04T08:31:01;10.70;99.90
13616;DHT22;6879;51.368;6.782;2024-02-04T08:33:30;10.70;99.90
13616;DHT22;6879;51.368;6.782;2024-02-04T08:36:00;10.80;99.90
13616;DHT22;6879;51.368;6.782;2024-02-04T08:38:29;10.80;99.90
13616;DHT22;6879;51.368;6.782;2024-02-04T08:40:57;10.80;99.90
13616;DHT22;6879;51.368;6.782;2024-02-04T08:43:26;10.80;99.90
13616;DHT22;6879;51.368;6.782;2024-02-04T08:45:54;10.80;99.90
13616;DHT22;6879;51.368;6.782;2024-02-04T08:48:23;10.80;99.90
13616;DHT22;6879;51.368;6.782;2024-02-04T08:50:52;10.90;99.90
13616;DHT22;6879;51.368;6.782;2024-02-04T08:53:23;10.90;99.90
13616;DHT22;6879;51.368;6.782;2024-02-04T08:55:51;10.90;99.90
13616;DHT22;6879;51.368;6.782;2024-02-04T08:58:20;10.90;99.90
13616;DHT22;6879;51.368;6.782;2024-02-04T09:00:48;10.90;99.90
13616;DHT22;6879;51.368;6.782;2024-02-04T09:03:17;10.90;99.90
13616;DHT22;6879;51.368;6.782;2024-02-04T09:05:46;11.00;99.90
13616;DHT22;6879;51.368;6.782;2024-02-04T09:08:15;10.90;99.90
13616;DHT22;6879;51.368;6.782;2024-02-04T09:10:45;10.90;99.90
13616;DHT22;6879;51.368;6.782;2024-02-04T09:13:13;10.90;99.90
13616;DHT22;6879;51.368;6.782;2024-02-04T09:15:42;11.00;99.90
13616;DHT22;6879;51.368;6.782;2024-02-04T09:18:11;10.90;99.90
13616;DHT22;6879;51.368;6.782;2024-02-04T09:20:40;11.00;99.90
13616;DHT22;6879;51.368;6.782;2024-02-04T09:23:09;11.00;99.90
13616;DHT22;6879;51.368;6.782;2024-02-04T09:25:37;11.10;99.90
13616;DHT22;6879;51.368;6.782;2024-02-04T09:28:08;11.10;99.90
13616;DHT22;6879;51.368;6.782;2024-02-04T09:30:37;11.20;99.90
13616;DHT22;6879;51.368;6.782;2024-02-04T09:33:05;11.20;99.90
13616;DHT22;6879;51.368;6.782;2024-02-04T09:35:36;11.20;99.90
13616;DHT22;6879;51.368;6.782;2024-02-04T09:38:05;11.20;99.90
13616;DHT22;6879;51.368;6.782;2024-02-04T09:40:40;11.20;99.90
13616;DHT22;6879;51.368;6.782;2024-02-04T09:43:10;11.10;99.90
13616;DHT22;6879;51.368;6.782;2024-02-04T09:45:39;11.10;99.90
13616;DHT22;6879;51.368;6.782;2024-02-04T09:48:08;11.10;99.90
13616;DHT22;6879;51.368;6.782;2024-02-04T09:50:38;11.10;99.90
13616;DHT22;6879;51.368;6.782;2024-02-04T09:53:08;11.10;99.90
13616;DHT22;6879;51.368;6.782;2024-02-04T09:55:38;11.10;99.90
13616;DHT22;6879;51.368;6.782;2024-02-04T09:58:09;11.10;99.90
13616;DHT22;6879;51.368;6.782;2024-02-04T10:00:40;11.10;99.90
13616;DHT22;6879;51.368;6.782;2024-02-04T10:03:11;11.10;99.90
13616;DHT22;6879;51.368;6.782;2024-02-04T10:05:40;11.10;99.90
13616;DHT22;6879;51.368;6.782;2024-02-04T10:08:09;11.10;99.90
13616;DHT22;6879;51.368;6.782;2024-02-04T10:10:38;11.10;99.90
13616;DHT22;6879;51.368;6.782;2024-02-04T10:13:07;11.10;99.90
13616;DHT22;6879;51.368;6.782;2024-02-04T10:15:37;11.10;99.90
13616;DHT22;6879;51.368;6.782;2024-02-04T10:18:07;11.20;99.90
13616;DHT22;6879;51.368;6.782;2024-02-04T10:20:36;11.30;99.90
13616;DHT22;6879;51.368;6.782;2024-02-04T10:23:05;11.30;99.90
13616;DHT22;6879;51.368;6.782;2024-02-04T10:25:33;11.40;99.90
13616;DHT22;6879;51.368;6.782;2024-02-04T10:28:02;11.30;99.90
13616;DHT22;6879;51.368;6.782;2024-02-04T10:30:31;11.30;99.90
13616;DHT22;6879;51.368;6.782;2024-02-04T10:33:01;11.30;99.90
13616;DHT22;6879;51.368;6.782;2024-02-04T10:35:30;11.40;99.90
13616;DHT22;6879;51.368;6.782;2024-02-04T10:37:58;11.40;99.90
13616;DHT22;6879;51.368;6.782;2024-02-04T10:40:27;11.50;99.90
13616;DHT22;6879;51.368;6.782;2024-02-04T10:43:00;11.40;99.90
13616;DHT22;6879;51.368;6.782;2024-02-04T10:48:15;11.40;99.90
13616;DHT22;6879;51.368;6.782;2024-02-04T10:50:47;11.40;99.90
13616;DHT22;6879;51.368;6.782;2024-02-04T10:53:19;11.40;99.90
13616;DHT22;6879;51.368;6.782;2024-02-04T10:55:49;11.40;99.90
13616;DHT22;6879;51.368;6.782;2024-02-04T10:58:23;11.20;99.90
13616;DHT22;6879;51.368;6.782;2024-02-04T11:00:55;11.20;99.90
13616;DHT22;6879;51.368;6.782;2024-02-04T11:03:53;11.10;99.90
13616;DHT22;6879;51.368;6.782;2024-02-04T11:06:23;11.20;99.90
13616;DHT22;6879;51.368;6.782;2024-02-04T11:08:53;11.20;99.90
13616;DHT22;6879;51.368;6.782;2024-02-04T11:11:23;11.20;99.90
13616;DHT22;6879;51.368;6.782;2024-02-04T11:13:57;11.30;99.90
13616;DHT22;6879;51.368;6.782;2024-02-04T11:19:47;11.40;99.90
13616;DHT22;6879;51.368;6.782;2024-02-04T11:22:34;11.40;99.90
13616;DHT22;6879;51.368;6.782;2024-02-04T11:25:34;11.40;99.90
13616;DHT22;6879;51.368;6.782;2024-02-04T11:28:08;11.40;99.90
13616;DHT22;6879;51.368;6.782;2024-02-04T11:30:39;11.40;99.90
13616;DHT22;6879;51.368;6.782;2024-02-04T11:33:11;11.40;99.90
13616;DHT22;6879;51.368;6.782;2024-02-04T11:35:41;11.40;99.90
13616;DHT22;6879;51.368;6.782;2024-02-04T11:38:10;11.30;99.90
13616;DHT22;6879;51.368;6.782;2024-02-04T11:40:41;11.30;99.90
13616;DHT22;6879;51.368;6.782;2024-02-04T11:43:11;11.30;99.90
13616;DHT22;6879;51.368;6.782;2024-02-04T11:45:40;11.30;99.90
13616;DHT22;6879;51.368;6.782;2024-02-04T11:48:10;11.30;99.90
13616;DHT22;6879;51.368;6.782;2024-02-04T11:50:41;11.30;99.90
13616;DHT22;6879;51.368;6.782;2024-02-04T11:53:11;11.30;99.90
13616;DHT22;6879;51.368;6.782;2024-02-04T11:55:41;11.40;99.90
13616;DHT22;6879;51.368;6.782;2024-02-04T11:58:12;11.40;99.90
13616;DHT22;6879;51.368;6.782;2024-02-04T12:00:43;11.40;99.90
13616;DHT22;6879;51.368;6.782;2024-02-04T12:03:12;11.40;99.90
13616;DHT22;6879;51.368;6.782;2024-02-04T12:05:43;11.40;99.90
13616;DHT22;6879;51.368;6.782;2024-02-04T12:08:12;11.40;99.90
13616;DHT22;6879;51.368;6.782;2024-02-04T12:10:41;11.40;99.90
13616;DHT22;6879;51.368;6.782;2024-02-04T12:13:10;11.40;99.90
13616;DHT22;6879;51.368;6.782;2024-02-04T12:15:40;11.40;99.90
13616;DHT22;6879;51.368;6.782;2024-02-04T12:18:11;11.40;99.90
13616;DHT22;6879;51.368;6.782;2024-02-04T12:20:43;11.40;99.90
13616;DHT22;6879;51.368;6.782;2024-02-04T12:23:12;11.40;99.90
13616;DHT22;6879;51.368;6.782;2024-02-04T12:25:41;11.40;99.90
13616;DHT22;6879;51.368;6.782;2024-02-04T12:28:11;11.40;99.90
13616;DHT22;6879;51.368;6.782;2024-02-04T12:30:40;11.40;99.90
13616;DHT22;6879;51.368;6.782;2024-02-04T12:33:09;11.40;99.90
13616;DHT22;6879;51.368;6.782;2024-02-04T12:35:38;11.40;99.90
13616;DHT22;6879;51.368;6.782;2024-02-04T12:38:08;11.40;99.90
13616;DHT22;6879;51.368;6.782;2024-02-04T12:40:37;11.40;99.90
13616;DHT22;6879;51.368;6.782;2024-02-04T12:43:06;11.40;99.90
13616;DHT22;6879;51.368;6.782;2024-02-04T12:45:34;11.40;99.90
13616;DHT22;6879;51.368;6.782;2024-02-04T12:48:04;11.50;99.90
13616;DHT22;6879;51.368;6.782;2024-02-04T12:50:33;11.40;99.90
13616;DHT22;6879;51.368;6.782;2024-02-04T12:53:07;11.40;99.90
13616;DHT22;6879;51.368;6.782;2024-02-04T12:55:39;11.40;99.90
13616;DHT22;6879;51.368;6.782;2024-02-04T12:58:11;11.40;99.90
13616;DHT22;6879;51.368;6.782;2024-02-04T13:00:44;11.30;99.90
13616;DHT22;6879;51.368;6.782;2024-02-04T13:03:15;11.30;99.90
13616;DHT22;6879;51.368;6.782;2024-02-04T13:05:46;11.30;99.90
13616;DHT22;6879;51.368;6.782;2024-02-04T13:08:18;11.30;99.90
13616;DHT22;6879;51.368;6.782;2024-02-04T13:10:53;11.30;99.90
13616;DHT22;6879;51.368;6.782;2024-02-04T13:13:23;11.30;99.90
13616;DHT22;6879;51.368;6.782;2024-02-04T13:16:12;11.30;99.90
13616;DHT22;6879;51.368;6.782;2024-02-04T13:19:21;11.30;99.90
13616;DHT22;6879;51.368;6.782;2024-02-04T13:21:50;11.30;99.90
13616;DHT22;6879;51.368;6.782;2024-02-04T13:24:20;11.30;99.90
13616;DHT22;6879;51.368;6.782;2024-02-04T13:26:48;11.30;99.90
13616;DHT22;6879;51.368;6.782;2024-02-04T13:29:17;11.30;99.90
13616;DHT22;6879;51.368;6.782;2024-02-04T13:31:46;11.30;99.90
13616;DHT22;6879;51.368;6.782;2024-02-04T13:34:15;11.30;99.90
13616;DHT22;6879;51.368;6.782;2024-02-04T13:36:51;11.20;99.90
13616;DHT22;6879;51.368;6.782;2024-02-04T13:39:21;11.30;99.90
13616;DHT22;6879;51.368;6.782;2024-02-04T13:41:50;11.20;99.90
13616;DHT22;6879;51.368;6.782;2024-02-04T13:44:18;11.20;99.90
13616;DHT22;6879;51.368;6.782;2024-02-04T13:46:48;11.20;99.90
13616;DHT22;6879;51.368;6.782;2024-02-04T13:49:17;11.20;99.90
13616;DHT22;6879;51.368;6.782;2024-02-04T13:51:45;11.20;99.90
13616;DHT22;6879;51.368;6.782;2024-02-04T13:54:14;11.10;99.90
13616;DHT22;6879;51.368;6.782;2024-02-04T13:56:46;11.20;99.90
13616;DHT22;6879;51.368;6.782;2024-02-04T13:59:18;11.20;99.90
13616;DHT22;6879;51.368;6.782;2024-02-04T14:01:47;11.20;99.90
13616;DHT22;6879;51.368;6.782;2024-02-04T14:04:17;11.10;99.90
13616;DHT22;6879;51.368;6.782;2024-02-04T14:06:46;11.20;99.90
13616;DHT22;6879;51.368;6.782;2024-02-04T14:09:15;11.20;99.90
13616;DHT22;6879;51.368;6.782;2024-02-04T14:11:43;11.20;99.90
13616;DHT22;6879;51.368;6.782;2024-02-04T14:14:14;11.20;99.90
13616;DHT22;6879;51.368;6.782;2024-02-04T14:16:42;11.20;99.90
13616;DHT22;6879;51.368;6.782;2024-02-04T14:19:14;11.30;99.90
13616;DHT22;6879;51.368;6.782;2024-02-04T14:21:44;11.30;99.90
13616;DHT22;6879;51.368;6.782;2024-02-04T14:24:15;11.30;99.90
13616;DHT22;6879;51.368;6.782;2024-02-04T14:26:43;11.30;99.90
13616;DHT22;6879;51.368;6.782;2024-02-04T14:29:15;11.40;99.90
13616;DHT22;6879;51.368;6.782;2024-02-04T14:31:44;11.30;99.90
13616;DHT22;6879;51.368;6.782;2024-02-04T14:34:13;11.30;99.90
13616;DHT22;6879;51.368;6.782;2024-02-04T14:36:42;11.30;99.90
13616;DHT22;6879;51.368;6.782;2024-02-04T14:39:11;11.30;99.90
13616;DHT22;6879;51.368;6.782;2024-02-04T14:41:40;11.30;99.90
13616;DHT22;6879;51.368;6.782;2024-02-04T14:44:09;11.30;99.90
13616;DHT22;6879;51.368;6.782;2024-02-04T14:46:39;11.30;99.90
13616;DHT22;6879;51.368;6.782;2024-02-04T14:49:09;11.30;99.90
13616;DHT22;6879;51.368;6.782;2024-02-04T14:51:39;11.30;99.90
13616;DHT22;6879;51.368;6.782;2024-02-04T14:54:08;11.30;99.90
13616;DHT22;6879;51.368;6.782;2024-02-04T14:56:38;11.30;99.90
13616;DHT22;6879;51.368;6.782;2024-02-04T14:59:09;11.40;99.90
13616;DHT22;6879;51.368;6.782;2024-02-04T15:01:50;11.30;99.90
13616;DHT22;6879;51.368;6.782;2024-02-04T15:04:19;11.40;99.90
13616;DHT22;6879;51.368;6.782;2024-02-04T15:06:48;11.30;99.90
13616;DHT22;6879;51.368;6.782;2024-02-04T15:09:18;11.40;99.90
13616;DHT22;6879;51.368;6.782;2024-02-04T15:11:47;11.40;99.90
13616;DHT22;6879;51.368;6.782;2024-02-04T15:14:17;11.40;99.90
13616;DHT22;6879;51.368;6.782;2024-02-04T15:16:54;11.40;99.90
13616;DHT22;6879;51.368;6.782;2024-02-04T15:19:30;11.40;99.90
13616;DHT22;6879;51.368;6.782;2024-02-04T15:22:35;11.30;99.90
13616;DHT22;6879;51.368;6.782;2024-02-04T15:25:05;11.30;99.90
13616;DHT22;6879;51.368;6.782;2024-02-04T15:27:34;11.30;99.90
13616;DHT22;6879;51.368;6.782;2024-02-04T15:30:05;11.30;99.90
13616;DHT22;6879;51.368;6.782;2024-02-04T15:32:38;11.30;99.90
13616;DHT22;6879;51.368;6.782;2024-02-04T15:35:08;11.30;99.90
13616;DHT22;6879;51.368;6.782;2024-02-04T15:37:40;11.30;99.90
13616;DHT22;6879;51.368;6.782;2024-02-04T15:40:18;11.30;99.90
13616;DHT22;6879;51.368;6.782;2024-02-04T15:42:49;11.30;99.90
13616;DHT22;6879;51.368;6.782;2024-02-04T15:45:18;11.30;99.90
13616;DHT22;6879;51.368;6.782;2024-02-04T15:48:17;11.30;99.90
13616;DHT22;6879;51.368;6.782;2024-02-04T15:50:54;11.20;99.90
13616;DHT22;6879;51.368;6.782;2024-02-04T15:53:26;11.20;99.90
13616;DHT22;6879;51.368;6.782;2024-02-04T15:56:05;11.20;99.90
13616;DHT22;6879;51.368;6.782;2024-02-04T15:58:36;11.10;99.90
13616;DHT22;6879;51.368;6.782;2024-02-04T16:01:11;11.10;99.90
13616;DHT22;6879;51.368;6.782;2024-02-04T16:03:51;11.10;99.90
13616;DHT22;6879;51.368;6.782;2024-02-04T16:07:11;11.10;99.90
13616;DHT22;6879;51.368;6.782;2024-02-04T16:09:42;11.10;99.90
13616;DHT22;6879;51.368;6.782;2024-02-04T16:12:18;11.10;99.90